Weather History for Storm Lake, IA

Change the Weather History Date:

Thursday, January 23, 2014

  Actual Average Record
Temperature  
Mean Temperature -2 °F -  
Max Temperature 6 °F 26 °F 51 °F (2004)
Min Temperature -11 °F 11 °F -11 °F (2003)
Degree Days  
Heating Degree Days 68    
Moisture  
Dew Point -12 °F    
Average Humidity 65    
Maximum Humidity 71    
Minimum Humidity 52    
Precipitation  
Precipitation 0.00 in - - ()
Sea Level Pressure  
Sea Level Pressure 30.59 in    
Wind  
Wind Speed 16 mph (WNW)    
Max Wind Speed 21 mph    
Max Gust Speed 29 mph    
Visibility 10 miles    
Events      
Averages and records for this station are not official NWS values.
T = Trace of Precipitation, MM = Missing Value Source: NWS Daily Summary

Daily Weather History Graph

Daily Weather History Graph

Search for Another Location

Airport:

Trip Planner

Search our weather history database for the weather conditions in past years. The results will help you decide how hot, cold, wet, or windy it might be!

Date:

Astronomy

Jan. 23, 2014 Rise Set
Actual Time 7:43 AM CST 5:22 PM CST
Civil Twilight 7:12 AM CST 5:53 PM CST
Nautical Twilight 6:38 AM CST 6:27 PM CST
Astronomical Twilight 6:04 AM CST 7:01 PM CST
Moon 12:04 AM CST 11:08 AM CST
Length of Visible Light 10h 40m
Length of Day
9h 39m
Waning Gibbous, 55% of the Moon is Illuminated
Jan 23
Waning Gibbous
Jan 23
Last Quarter
Jan 30
New
Feb 6
First Quarter
Feb 14
Full

Hourly Weather History & Observations

Time (CST) Temp. Windchill Dew Point Humidity Pressure Visibility Wind Dir Wind Speed Gust Speed Precip Events Conditions
12:15 AM -7.6 °F -32.3 °F -16.6 °F 65% 30.52 in 10.0 mi NNW 20.7 mph 26.5 mph N/A   Partly Cloudy
12:35 AM -7.6 °F -31.7 °F -16.6 °F 65% 30.52 in 10.0 mi NNW 19.6 mph 25.3 mph N/A   Mostly Cloudy
12:55 AM -7.6 °F -30.5 °F -16.6 °F 65% 30.52 in 10.0 mi NNW 17.3 mph - N/A   Overcast
1:15 AM -7.6 °F -31.7 °F -16.6 °F 65% 30.52 in 10.0 mi NNW 19.6 mph 28.8 mph N/A   Overcast
1:35 AM -7.6 °F -31.7 °F -16.6 °F 65% 30.53 in 9.0 mi NNW 19.6 mph 26.5 mph N/A   Overcast
1:55 AM -9.4 °F -34.1 °F -16.6 °F 71% 30.53 in 10.0 mi NNW 19.6 mph 26.5 mph N/A   Overcast
2:15 AM -9.4 °F -32.8 °F -16.6 °F 71% 30.55 in 10.0 mi NW 17.3 mph - N/A   Overcast
2:35 AM -9.4 °F -32.1 °F -16.6 °F 71% 30.56 in 10.0 mi NW 16.1 mph - N/A   Overcast
2:55 AM -9.4 °F -32.8 °F -16.6 °F 71% 30.56 in 10.0 mi NW 17.3 mph - N/A   Overcast
3:15 AM -9.4 °F -30.6 °F -18.4 °F 65% 30.57 in 10.0 mi NW 13.8 mph 20.7 mph N/A   Overcast
3:35 AM -9.4 °F -31.4 °F -18.4 °F 65% 30.57 in 10.0 mi NW 15.0 mph - N/A   Overcast
3:55 AM -9.4 °F -32.8 °F -18.4 °F 65% 30.58 in 10.0 mi NNW 17.3 mph - N/A   Overcast
4:15 AM -9.4 °F -32.1 °F -18.4 °F 65% 30.59 in 10.0 mi NW 16.1 mph - N/A   Overcast
4:35 AM -11.2 °F -34.4 °F -18.4 °F 70% 30.59 in 10.0 mi NNW 16.1 mph - N/A   Overcast
4:55 AM -11.2 °F -33.7 °F -18.4 °F 70% 30.60 in 10.0 mi NNW 15.0 mph 21.9 mph N/A   Overcast
5:15 AM -11.2 °F -34.4 °F -18.4 °F 70% 30.61 in 10.0 mi NNW 16.1 mph - N/A   Mostly Cloudy
5:35 AM -11.2 °F -32.9 °F -18.4 °F 70% 30.62 in 10.0 mi NW 13.8 mph - N/A   Scattered Clouds
5:55 AM -11.2 °F -32.1 °F -18.4 °F 70% 30.63 in 10.0 mi NW 12.7 mph - N/A   Clear
6:15 AM -11.2 °F -32.1 °F -18.4 °F 70% 30.64 in 10.0 mi NW 12.7 mph 20.7 mph N/A   Clear
6:35 AM -11.2 °F -33.7 °F -18.4 °F 70% 30.65 in 10.0 mi NW 15.0 mph - N/A   Clear
6:55 AM -11.2 °F -34.4 °F -18.4 °F 70% 30.66 in 10.0 mi NNW 16.1 mph - N/A   Clear
7:15 AM -11.2 °F -32.9 °F -18.4 °F 70% 30.67 in - NNW 13.8 mph - N/A   Clear
7:35 AM -11.2 °F -32.1 °F -18.4 °F 70% 30.68 in 10.0 mi NW 12.7 mph 19.6 mph N/A   Clear
7:55 AM -11.2 °F -31.1 °F -18.4 °F 70% 30.69 in 10.0 mi NW 11.5 mph - N/A   Clear
8:15 AM -11.2 °F -32.9 °F -18.4 °F 70% 30.69 in 10.0 mi NW 13.8 mph - N/A   Clear
8:35 AM -9.4 °F -32.1 °F -18.4 °F 65% 30.69 in 10.0 mi NW 16.1 mph - N/A   Clear
8:55 AM -9.4 °F -32.1 °F -16.6 °F 71% 30.70 in 10.0 mi NW 16.1 mph - N/A   Clear
9:15 AM -7.6 °F -30.5 °F -16.6 °F 65% 30.70 in 10.0 mi NW 17.3 mph - N/A   Clear
9:35 AM -7.6 °F -29.8 °F -16.6 °F 65% 30.71 in 10.0 mi NW 16.1 mph 21.9 mph N/A   Clear
9:55 AM -5.8 °F -28.2 °F -14.8 °F 65% 30.71 in 10.0 mi NW 17.3 mph - N/A   Clear
10:15 AM -5.8 °F -27.5 °F -14.8 °F 65% 30.72 in 10.0 mi NW 16.1 mph - N/A   Clear
10:35 AM -4.0 °F -23.7 °F -13.0 °F 65% 30.73 in 10.0 mi NW 13.8 mph 20.7 mph N/A   Clear
10:55 AM -4.0 °F -23.7 °F -11.2 °F 71% 30.73 in 10.0 mi NW 13.8 mph - N/A   Clear
11:15 AM -2.2 °F -20.7 °F -11.2 °F 66% 30.72 in 10.0 mi NW 12.7 mph 21.9 mph N/A   Clear
11:35 AM -2.2 °F -21.5 °F -9.4 °F 71% 30.72 in 10.0 mi NW 13.8 mph - N/A   Clear
11:55 AM -0.4 °F -19.9 °F -9.4 °F 66% 30.72 in 10.0 mi WNW 15.0 mph - N/A   Clear
12:15 PM 1.4 °F -16.9 °F -7.6 °F 66% 30.71 in 10.0 mi NW 13.8 mph 19.6 mph N/A   Clear
12:35 PM 1.4 °F -16.1 °F -7.6 °F 66% 30.70 in 10.0 mi WNW 12.7 mph - N/A   Clear
12:55 PM 3.2 °F -12.2 °F -5.8 °F 66% 30.69 in 10.0 mi NW 10.4 mph 17.3 mph N/A   Clear
1:15 PM 3.2 °F -14.6 °F -5.8 °F 66% 30.68 in 10.0 mi WNW 13.8 mph 20.7 mph N/A   Clear
1:35 PM 5.0 °F -11.6 °F -5.8 °F 61% 30.67 in 10.0 mi NW 12.7 mph - N/A   Partly Cloudy
1:55 PM 5.0 °F -11.6 °F -4.0 °F 66% 30.66 in 10.0 mi NW 12.7 mph 20.7 mph N/A   Scattered Clouds
2:15 PM 5.0 °F -13.6 °F -4.0 °F 66% 30.65 in 10.0 mi WNW 16.1 mph 23.0 mph N/A   Partly Cloudy
2:35 PM 6.8 °F -11.8 °F -4.0 °F 61% 30.64 in 10.0 mi WNW 17.3 mph - N/A   Partly Cloudy
2:55 PM 6.8 °F -10.7 °F -5.8 °F 56% 30.64 in 10.0 mi WNW 15.0 mph 20.7 mph N/A   Clear
3:15 PM 6.8 °F -10.7 °F -4.0 °F 61% 30.63 in 10.0 mi West 15.0 mph - N/A   Clear
3:35 PM 6.8 °F -10.0 °F -4.0 °F 61% 30.63 in 10.0 mi West 13.8 mph - N/A   Clear
3:55 PM 6.8 °F -10.0 °F -4.0 °F 61% 30.64 in 10.0 mi West 13.8 mph - N/A   Clear
4:15 PM 6.8 °F -10.7 °F -4.0 °F 61% 30.63 in 10.0 mi West 15.0 mph - N/A   Clear
4:35 PM 6.8 °F -8.6 °F -5.8 °F 56% 30.62 in 10.0 mi WNW 11.5 mph - N/A   Clear
4:55 PM 5.0 °F -10.0 °F -5.8 °F 61% 30.61 in 10.0 mi West 10.4 mph - N/A   Clear
5:15 PM 5.0 °F -8.1 °F -5.8 °F 61% 30.60 in 10.0 mi West 8.1 mph - N/A   Clear
5:35 PM 3.2 °F -10.3 °F -5.8 °F 66% 30.60 in 10.0 mi West 8.1 mph - N/A   Clear
5:55 PM 1.4 °F -12.5 °F -7.6 °F 66% 30.59 in 10.0 mi WSW 8.1 mph - N/A   Clear
6:15 PM -0.4 °F -14.7 °F -9.4 °F 66% 30.58 in 10.0 mi SW 8.1 mph - N/A   Clear
6:35 PM -0.4 °F -14.7 °F -9.4 °F 66% 30.57 in 10.0 mi SW 8.1 mph - N/A   Clear
6:55 PM -2.2 °F -15.6 °F -9.4 °F 71% 30.57 in 10.0 mi SW 6.9 mph - N/A   Clear
7:15 PM -2.2 °F -18.9 °F -9.4 °F 71% 30.55 in 10.0 mi SW 10.4 mph - N/A   Clear
7:35 PM -2.2 °F -18.0 °F -9.4 °F 71% 30.54 in 10.0 mi SW 9.2 mph - N/A   Clear
7:55 PM -0.4 °F -15.7 °F -9.4 °F 66% 30.53 in 10.0 mi SSW 9.2 mph - N/A   Clear
8:15 PM -0.4 °F -16.7 °F -11.2 °F 60% 30.51 in 10.0 mi SSW 10.4 mph - N/A   Clear
8:35 PM -0.4 °F -17.6 °F -9.4 °F 66% 30.49 in 10.0 mi SSW 11.5 mph - N/A   Clear
8:55 PM 1.4 °F -16.9 °F -9.4 °F 61% 30.46 in 10.0 mi SSW 13.8 mph - N/A   Clear
9:15 PM 3.2 °F -15.9 °F -9.4 °F 56% 30.44 in 10.0 mi SW 16.1 mph - N/A   Clear
9:35 PM 5.0 °F -13.0 °F -7.6 °F 56% 30.42 in 10.0 mi SW 15.0 mph 21.9 mph N/A   Clear
9:55 PM 5.0 °F -13.0 °F -7.6 °F 56% 30.40 in 10.0 mi SW 15.0 mph - N/A   Clear
10:15 PM 5.0 °F -13.6 °F -7.6 °F 56% 30.39 in 10.0 mi SSW 16.1 mph - N/A   Clear
10:35 PM 5.0 °F -14.2 °F -7.6 °F 56% 30.37 in 10.0 mi SSW 17.3 mph - N/A   Clear
10:55 PM 5.0 °F -13.0 °F -7.6 °F 56% 30.36 in 10.0 mi SSW 15.0 mph - N/A   Clear
11:15 PM 6.8 °F -12.4 °F -7.6 °F 52% 30.33 in 10.0 mi SSW 18.4 mph 24.2 mph N/A   Clear
11:35 PM 6.8 °F -11.3 °F -7.6 °F 52% 30.32 in 10.0 mi SSW 16.1 mph 21.9 mph N/A   Clear
11:55 PM 6.8 °F -11.8 °F -5.8 °F 56% 30.31 in 10.0 mi SSW 17.3 mph 24.2 mph N/A   Clear